Time;durP1;ratioP1;P1;durP2;ratioP2;P2;SDS_P1;SDS_P2;PMS_P1;PMS_P2;Temp;Humidity;BMP_temperature;BMP_pressure;BME280_temperature;BME280_humidity;BME280_pressure;Samples;Min_cycle;Max_cycle;Signal;HPM_P1;HPM_P2
2022/08/19 00:01:42;;;;;;;14.05;10.52;;;;;;;24.65;54.17;101406.22;5035407;28;20036;-74
2022/08/19 00:04:09;;;;;;;12.20;9.05;;;;;;;24.56;54.05;101405.31;5035766;28;20060;-73
2022/08/19 00:06:38;;;;;;;14.20;9.15;;;;;;;24.58;53.83;101405.84;5035302;28;20041;-74
2022/08/19 00:09:07;;;;;;;10.45;9.25;;;;;;;24.33;54.96;101411.81;5035048;28;20033;-72
2022/08/19 00:11:35;;;;;;;16.25;9.57;;;;;;;24.33;54.85;101409.84;5035130;28;20037;-73
2022/08/19 00:14:01;;;;;;;11.75;9.77;;;;;;;24.40;54.24;101410.28;5035298;28;20036;-74
2022/08/19 00:16:27;;;;;;;12.70;10.13;;;;;;;24.46;53.97;101412.94;5028048;28;20037;-71
2022/08/19 00:18:55;;;;;;;14.65;10.30;;;;;;;24.32;54.51;101411.00;5034953;28;20168;-73
2022/08/19 00:21:21;;;;;;;12.93;9.77;;;;;;;24.29;54.56;101397.06;5034430;28;20083;-72
2022/08/19 00:23:47;;;;;;;14.82;10.55;;;;;;;24.31;54.48;101403.06;5034039;28;20044;-72
2022/08/19 00:26:14;;;;;;;11.10;10.00;;;;;;;24.20;55.15;101409.84;5034422;28;20029;-71
2022/08/19 00:28:39;;;;;;;16.45;10.65;;;;;;;24.22;54.95;101407.59;5034684;28;20482;-70
2022/08/19 00:31:06;;;;;;;12.60;9.95;;;;;;;24.26;54.69;101405.88;5035181;28;20046;-72
2022/08/19 00:33:32;;;;;;;11.82;10.45;;;;;;;24.17;54.73;101408.53;5034787;28;20120;-71
2022/08/19 00:36:04;;;;;;;17.00;11.60;;;;;;;24.17;54.89;101397.53;5034710;28;20123;-71
2022/08/19 00:38:30;;;;;;;12.82;11.50;;;;;;;24.18;55.04;101401.09;5034378;28;20056;-70
2022/08/19 00:40:56;;;;;;;14.80;11.32;;;;;;;24.10;55.28;101393.53;5034417;28;20125;-72
2022/08/19 00:43:25;;;;;;;14.57;10.57;;;;;;;24.10;55.32;101401.78;5033397;28;20517;-72
2022/08/19 00:45:51;;;;;;;16.48;11.45;;;;;;;24.01;55.63;101401.63;5035048;28;20377;-72
2022/08/19 00:48:18;;;;;;;12.90;11.07;;;;;;;23.96;55.78;101395.41;5034209;28;20052;-72
2022/08/19 00:50:44;;;;;;;17.48;11.77;;;;;;;23.97;55.74;101386.88;5034100;28;20022;-73
2022/08/19 00:53:14;;;;;;;12.32;10.98;;;;;;;24.07;55.24;101381.25;5033857;28;20038;-73
2022/08/19 00:55:41;;;;;;;15.45;11.75;;;;;;;23.95;56.07;101385.53;5034402;28;20072;-72
2022/08/19 00:58:12;;;;;;;14.98;10.65;;;;;;;23.88;55.98;101391.41;5034375;28;20408;-70
2022/08/19 01:00:38;;;;;;;14.07;10.73;;;;;;;23.88;55.64;101390.63;5033678;28;20514;-70
2022/08/19 01:03:08;;;;;;;15.15;11.38;;;;;;;23.91;55.86;101395.50;5033801;28;20420;-70
2022/08/19 01:05:34;;;;;;;14.18;11.02;;;;;;;23.93;55.77;101394.09;5033789;28;20042;-70
2022/08/19 01:08:03;;;;;;;19.45;10.77;;;;;;;23.97;55.29;101397.03;5034001;28;20037;-71
2022/08/19 01:10:36;;;;;;;14.35;11.23;;;;;;;23.86;55.94;101403.81;5034131;28;20419;-70
2022/08/19 01:13:03;;;;;;;15.27;11.77;;;;;;;23.80;56.30;101411.34;5021662;28;20508;-71
2022/08/19 01:15:35;;;;;;;12.77;10.80;;;;;;;23.93;55.67;101409.72;5013630;28;20046;-73
2022/08/19 01:18:05;;;;;;;17.73;12.13;;;;;;;23.82;55.71;101406.34;5013878;28;20038;-73
2022/08/19 01:20:33;;;;;;;15.48;11.70;;;;;;;23.75;56.13;101405.09;5014213;28;20453;-73
2022/08/19 01:22:59;;;;;;;15.52;10.55;;;;;;;23.71;56.12;101404.88;5014042;28;20125;-73
2022/08/19 01:25:45;;;;;;;13.88;10.63;;;;;;;23.72;56.07;101408.44;5013794;28;20030;-72
2022/08/19 01:28:25;;;;;;;13.52;11.32;;;;;;;23.54;56.86;101405.44;5014655;28;20076;-73
2022/08/19 01:30:51;;;;;;;17.88;12.07;;;;;;;23.66;56.33;101413.19;5014351;28;20050;-73
2022/08/19 01:33:17;;;;;;;12.57;11.20;;;;;;;23.66;56.49;101399.47;5013019;28;20046;-74
2022/08/19 01:35:42;;;;;;;13.77;11.55;;;;;;;23.70;56.68;101405.19;5013780;28;20030;-74
2022/08/19 01:38:19;;;;;;;15.07;12.70;;;;;;;23.69;56.31;101401.63;5013939;28;20045;-72
2022/08/19 01:40:45;;;;;;;15.18;13.65;;;;;;;23.67;56.18;101403.84;5013526;28;20037;-74
2022/08/19 01:43:10;;;;;;;12.95;11.25;;;;;;;23.63;56.23;101407.47;5014058;28;20482;-72
2022/08/19 01:45:37;;;;;;;15.70;11.98;;;;;;;23.53;56.32;101406.53;5013468;28;20037;-71
2022/08/19 01:48:03;;;;;;;14.88;12.70;;;;;;;23.57;56.45;101403.19;5013459;28;20034;-71
2022/08/19 01:50:31;;;;;;;16.35;12.40;;;;;;;23.41;57.25;101410.81;4995963;28;20049;-72
2022/08/19 01:52:56;;;;;;;22.35;13.13;;;;;;;23.40;57.42;101412.75;5013072;28;20030;-73
2022/08/19 01:55:23;;;;;;;15.70;13.05;;;;;;;23.47;57.03;101404.97;5013597;28;20030;-73
2022/08/19 01:57:54;;;;;;;14.23;12.73;;;;;;;23.51;56.92;101405.19;5013809;28;20034;-73
2022/08/19 02:00:22;;;;;;;19.42;14.25;;;;;;;23.54;56.98;101394.44;5013418;28;20398;-74
2022/08/19 02:02:48;;;;;;;17.45;13.13;;;;;;;23.34;57.15;101400.22;5013592;28;20042;-73
2022/08/19 02:05:13;;;;;;;16.02;12.90;;;;;;;23.41;57.56;101413.56;4995914;28;20423;-72
2022/08/19 02:07:40;;;;;;;14.43;12.90;;;;;;;23.36;57.16;101416.38;5013400;28;20034;-72
2022/08/19 02:10:09;;;;;;;18.90;13.52;;;;;;;23.51;57.07;101416.16;5012247;28;20030;-74
2022/08/19 02:12:35;;;;;;;17.65;12.50;;;;;;;23.57;56.87;101409.47;5007867;28;20042;-74
2022/08/19 02:15:02;;;;;;;15.25;12.70;;;;;;;23.47;56.49;101413.19;4993541;28;20114;-74
2022/08/19 02:17:29;;;;;;;16.35;12.88;;;;;;;23.34;56.77;101408.47;5011197;28;20398;-73
2022/08/19 02:19:56;;;;;;;18.10;13.60;;;;;;;23.27;57.70;101404.44;5012949;28;20038;-73
2022/08/19 02:22:22;;;;;;;17.33;13.65;;;;;;;23.42;56.90;101409.72;5012790;28;20038;-75
2022/08/19 02:24:47;;;;;;;14.13;12.73;;;;;;;23.45;57.18;101401.69;5013660;28;20091;-73
2022/08/19 02:27:14;;;;;;;19.67;14.48;;;;;;;23.43;57.16;101394.88;5012979;28;20034;-72
2022/08/19 02:29:39;;;;;;;17.48;13.95;;;;;;;23.44;56.80;101394.59;5012804;28;20490;-74
2022/08/19 02:32:05;;;;;;;16.67;14.32;;;;;;;23.37;57.21;101402.38;5012946;28;20042;-72
2022/08/19 02:34:30;;;;;;;18.23;14.73;;;;;;;23.26;58.00;101413.75;5012856;28;20068;-72
2022/08/19 02:36:55;;;;;;;16.67;14.07;;;;;;;23.29;57.36;101403.00;5013232;28;20084;-71
2022/08/19 02:39:21;;;;;;;19.60;15.25;;;;;;;23.35;57.30;101410.06;5012451;28;20034;-75
2022/08/19 02:41:46;;;;;;;18.08;14.10;;;;;;;23.34;56.89;101402.16;5012511;28;20038;-72
2022/08/19 02:44:12;;;;;;;17.77;13.85;;;;;;;23.27;57.16;101404.44;5012765;28;20030;-74
2022/08/19 02:46:38;;;;;;;21.45;14.65;;;;;;;23.25;57.28;101403.91;5012871;28;20038;-72
2022/08/19 02:49:05;;;;;;;18.45;14.15;;;;;;;23.27;56.62;101413.44;5013021;28;20114;-73
2022/08/19 02:51:38;;;;;;;16.30;13.88;;;;;;;23.31;56.83;101414.53;5011126;28;20113;-73
2022/08/19 02:54:05;;;;;;;18.77;14.52;;;;;;;23.24;57.09;101414.06;5012278;28;20048;-75
2022/08/19 02:56:31;;;;;;;17.10;13.07;;;;;;;23.22;56.89;101401.75;5012412;28;20109;-74
2022/08/19 02:58:57;;;;;;;18.05;14.70;;;;;;;23.21;57.28;101400.91;5012228;28;20465;-72
2022/08/19 03:01:31;;;;;;;18.70;13.68;;;;;;;23.17;57.29;101404.56;5012219;28;20106;-71
2022/08/19 03:04:04;;;;;;;18.40;14.27;;;;;;;23.20;57.22;101401.22;5012563;28;20045;-70
2022/08/19 03:06:30;;;;;;;16.98;14.70;;;;;;;23.08;57.10;101407.13;5010547;28;20038;-72
2022/08/19 03:08:56;;;;;;;15.80;14.18;;;;;;;23.19;56.98;101408.63;5006589;28;20471;-70
2022/08/19 03:11:24;;;;;;;15.80;14.05;;;;;;;23.02;57.05;101410.22;4992173;28;20137;-73
2022/08/19 03:13:50;;;;;;;18.60;14.68;;;;;;;22.99;57.04;101413.56;4992567;28;20425;-72
2022/08/19 03:16:17;;;;;;;18.42;14.40;;;;;;;22.95;57.76;101410.63;4982185;28;20610;-70
2022/08/19 03:18:43;;;;;;;23.27;15.77;;;;;;;23.07;57.26;101411.00;4992875;28;20038;-71
2022/08/19 03:21:08;;;;;;;18.20;15.27;;;;;;;23.01;57.78;101417.66;4992348;28;20498;-73
2022/08/19 03:23:35;;;;;;;19.92;14.75;;;;;;;23.01;57.64;101409.44;4992235;28;20053;-72
2022/08/19 03:26:04;;;;;;;21.27;15.82;;;;;;;22.96;57.17;101409.50;4992318;28;20088;-72
2022/08/19 03:28:30;;;;;;;20.48;16.67;;;;;;;23.04;57.78;101410.75;4992522;28;20026;-72
2022/08/19 03:31:03;;;;;;;18.02;16.05;;;;;;;23.05;57.94;101415.16;4992821;28;20042;-73
2022/08/19 03:33:30;;;;;;;22.42;16.98;;;;;;;22.80;58.58;101413.53;4992382;28;20034;-73
2022/08/19 03:36:13;;;;;;;23.48;17.48;;;;;;;22.99;58.20;101414.41;4992325;28;20034;-72
2022/08/19 03:38:45;;;;;;;22.42;16.92;;;;;;;23.02;57.74;101419.28;4992142;28;20188;-70
2022/08/19 03:41:15;;;;;;;18.73;16.60;;;;;;;23.01;58.02;101414.91;4992023;28;20048;-73
2022/08/19 03:43:41;;;;;;;22.13;17.23;;;;;;;22.94;58.02;101417.19;4992170;28;20035;-73
2022/08/19 03:46:21;;;;;;;19.90;17.77;;;;;;;22.70;58.80;101414.47;4992576;28;20233;-71
2022/08/19 03:48:53;;;;;;;19.60;16.95;;;;;;;22.95;58.67;101404.31;4992308;28;20081;-73
2022/08/19 03:51:24;;;;;;;23.30;17.73;;;;;;;22.95;57.78;101405.13;4992097;28;20036;-70
2022/08/19 03:53:50;;;;;;;24.60;17.00;;;;;;;23.01;58.06;101403.97;4992116;28;20069;-72
2022/08/19 03:56:15;;;;;;;22.30;17.70;;;;;;;22.96;57.70;101406.75;4992000;28;20040;-72
2022/08/19 03:58:41;;;;;;;24.27;18.48;;;;;;;23.02;57.80;101407.50;4992015;28;20486;-72
2022/08/19 04:01:14;;;;;;;25.23;17.00;;;;;;;22.85;58.14;101418.97;4994973;28;20045;-71
2022/08/19 04:03:40;;;;;;;23.13;17.17;;;;;;;22.99;57.62;101408.91;4993478;28;20391;-72
2022/08/19 04:06:15;;;;;;;20.85;16.58;;;;;;;22.90;57.98;101407.13;5004931;28;20042;-73
2022/08/19 04:08:43;;;;;;;21.90;18.30;;;;;;;23.00;58.14;101399.56;5011278;28;20385;-71
2022/08/19 04:11:10;;;;;;;19.88;17.75;;;;;;;23.04;57.70;101402.53;5007308;28;20102;-72
2022/08/19 04:13:36;;;;;;;22.27;17.17;;;;;;;22.94;57.79;101403.47;5011168;28;20034;-71
2022/08/19 04:16:01;;;;;;;23.63;18.13;;;;;;;23.03;57.77;101395.44;5014540;28;20033;-71
2022/08/19 04:18:29;;;;;;;20.83;17.52;;;;;;;22.98;58.03;101398.22;5015254;28;20347;-71
2022/08/19 04:20:55;;;;;;;21.73;17.67;;;;;;;22.86;58.72;101393.16;5015360;28;20045;-72
2022/08/19 04:23:20;;;;;;;20.33;18.10;;;;;;;22.91;57.94;101386.81;5014863;28;20034;-71
2022/08/19 04:25:45;;;;;;;24.52;19.83;;;;;;;23.07;58.06;101389.06;5015218;28;20041;-72
2022/08/19 04:28:12;;;;;;;25.35;19.08;;;;;;;22.90;58.13;101394.22;5015631;28;20034;-72
2022/08/19 04:30:47;;;;;;;23.55;19.00;;;;;;;22.85;58.62;101383.31;5014912;28;20091;-73
2022/08/19 04:33:15;;;;;;;23.52;20.13;;;;;;;22.81;58.31;101382.28;5013752;28;20050;-72
2022/08/19 04:35:43;;;;;;;27.13;19.50;;;;;;;22.77;58.83;101383.97;5014798;28;20069;-72
2022/08/19 04:38:10;;;;;;;22.40;19.33;;;;;;;22.73;58.86;101379.34;5014901;28;20604;-71
2022/08/19 04:43:34;;;;;;;28.63;19.60;;;;;;;22.87;58.58;101386.59;5015161;28;20096;-72
2022/08/19 04:46:08;;;;;;;33.33;20.83;;;;;;;22.57;60.05;101387.78;5015052;28;20038;-71
2022/08/19 04:48:34;;;;;;;23.48;18.48;;;;;;;22.71;59.52;101379.66;5014761;28;20030;-72
2022/08/19 04:51:00;;;;;;;36.05;21.90;;;;;;;22.51;60.44;101377.13;5014588;28;20088;-71
2022/08/19 04:53:30;;;;;;;24.55;19.38;;;;;;;22.90;59.01;101382.47;5014598;28;20544;-71
2022/08/19 04:55:58;;;;;;;27.02;19.67;;;;;;;22.75;59.20;101377.97;4995978;28;20030;-74
2022/08/19 04:58:28;;;;;;;22.77;18.67;;;;;;;22.88;59.12;101388.19;5013237;28;20038;-70
2022/08/19 05:00:54;;;;;;;26.67;19.60;;;;;;;22.39;60.28;101393.13;5015050;28;20103;-71
2022/08/19 05:03:20;;;;;;;26.85;20.75;;;;;;;22.75;59.16;101388.94;5014508;28;20486;-70
2022/08/19 05:05:50;;;;;;;23.15;19.88;;;;;;;22.89;59.25;101389.03;4996903;28;20049;-71
2022/08/19 05:08:19;;;;;;;23.77;19.95;;;;;;;22.95;58.48;101391.41;5014337;28;20494;-73
2022/08/19 05:10:46;;;;;;;25.23;20.13;;;;;;;22.87;59.29;101388.50;5014206;28;20103;-72
2022/08/19 05:13:12;;;;;;;26.67;19.80;;;;;;;22.91;59.52;101390.38;5014698;28;20046;-72
2022/08/19 05:15:37;;;;;;;23.45;20.45;;;;;;;22.81;59.90;101393.25;4996291;28;20046;-71
2022/08/19 05:23:31;;;;;;;28.83;22.20;;;;;;;23.11;58.37;101400.25;5014080;28;20510;-72
2022/08/19 05:25:57;;;;;;;27.77;21.17;;;;;;;23.06;59.09;101403.88;5013861;28;20034;-73
2022/08/19 05:28:22;;;;;;;28.85;21.67;;;;;;;23.24;58.33;101394.03;5013562;28;20463;-71
2022/08/19 05:30:50;;;;;;;27.63;21.17;;;;;;;23.22;58.42;101394.34;5014167;28;20040;-71
2022/08/19 05:33:15;;;;;;;29.27;21.70;;;;;;;23.29;58.26;101386.53;5017845;28;20045;-71
2022/08/19 05:35:41;;;;;;;24.70;21.83;;;;;;;23.05;59.12;101383.06;5029465;28;20477;-72
2022/08/19 05:38:08;;;;;;;28.52;21.38;;;;;;;23.31;58.39;101387.09;5033137;28;20056;-71
2022/08/19 05:40:39;;;;;;;34.40;23.73;;;;;;;23.31;58.54;101387.09;5008892;28;20036;-72
2022/08/19 05:43:07;;;;;;;32.58;23.35;;;;;;;23.30;58.71;101388.19;5033600;28;20048;-71
2022/08/19 05:45:37;;;;;;;29.88;22.92;;;;;;;23.45;58.72;101382.50;5033415;28;20037;-71
2022/08/19 05:48:03;;;;;;;;;;;;;;;23.38;58.79;101384.81;5033781;28;20040;-74
2022/08/19 05:50:29;;;;;;;31.23;22.15;;;;;;;23.38;58.74;101390.31;5033125;28;20005;-71
2022/08/19 05:52:54;;;;;;;27.25;22.10;;;;;;;23.32;59.04;101385.19;5032833;28;20041;-71
2022/08/19 05:55:20;;;;;;;32.85;23.10;;;;;;;23.31;59.26;101383.56;5012220;28;20042;-72
2022/08/19 05:57:46;;;;;;;30.35;22.92;;;;;;;23.33;59.66;101390.34;5007180;28;20030;-71
2022/08/19 06:00:13;;;;;;;33.92;24.25;;;;;;;23.31;59.30;101381.59;4993682;28;20122;-71
2022/08/19 06:02:39;;;;;;;30.38;22.67;;;;;;;23.52;58.67;101393.09;4975887;28;20030;-72
2022/08/19 06:05:08;;;;;;;30.42;22.73;;;;;;;23.57;58.97;101373.81;4993455;28;20034;-72
2022/08/19 06:07:35;;;;;;;27.92;22.88;;;;;;;23.83;58.31;101387.94;4993802;28;20434;-70
2022/08/19 06:10:07;;;;;;;27.25;23.15;;;;;;;23.93;58.38;101385.03;4993951;28;20053;-72
2022/08/19 06:12:34;;;;;;;25.40;22.02;;;;;;;23.97;57.95;101386.88;4993026;28;20483;-70
2022/08/19 06:15:03;;;;;;;29.33;23.27;;;;;;;23.99;57.93;101392.06;4976426;28;20133;-71
2022/08/19 06:17:29;;;;;;;29.52;23.38;;;;;;;24.05;58.06;101393.63;4991695;28;20129;-73
2022/08/19 06:19:55;;;;;;;32.97;24.98;;;;;;;24.03;58.53;101393.13;4993377;28;20114;-70
2022/08/19 06:22:20;;;;;;;31.95;23.27;;;;;;;24.24;57.65;101389.72;4995270;28;20882;-70
2022/08/19 06:24:46;;;;;;;28.15;23.27;;;;;;;24.30;57.79;101394.00;5001762;28;20060;-69
2022/08/19 06:27:11;;;;;;;28.08;22.73;;;;;;;24.33;57.64;101387.88;5002651;28;20057;-68
2022/08/19 06:29:37;;;;;;;31.35;22.08;;;;;;;24.33;57.69;101393.38;4983901;28;20080;-71
2022/08/19 06:32:03;;;;;;;29.05;21.60;;;;;;;24.33;57.91;101387.09;5000472;28;20517;-70
2022/08/19 06:34:32;;;;;;;34.70;23.35;;;;;;;24.32;57.52;101377.19;5002260;28;20026;-69
2022/08/19 06:37:00;;;;;;;29.38;22.40;;;;;;;24.37;57.83;101388.13;5002110;28;20038;-70
2022/08/19 06:39:28;;;;;;;29.35;23.10;;;;;;;24.36;58.17;101384.53;4999774;28;20046;-69
2022/08/19 06:41:57;;;;;;;34.10;22.67;;;;;;;24.60;57.07;101392.59;5001363;28;20049;-70
2022/08/19 06:44:25;;;;;;;28.70;21.95;;;;;;;24.28;58.18;101387.16;5002291;28;20034;-70
2022/08/19 06:46:51;;;;;;;36.88;23.63;;;;;;;24.59;57.60;101398.41;4995212;28;20038;-71
2022/08/19 06:49:17;;;;;;;27.63;21.98;;;;;;;24.50;57.67;101401.03;4991494;28;20402;-71
2022/08/19 06:51:46;;;;;;;28.13;22.23;;;;;;;24.88;57.12;101398.94;4993119;28;20034;-72
2022/08/19 06:54:11;;;;;;;27.75;22.77;;;;;;;24.91;56.96;101396.38;4985027;28;20038;-72
2022/08/19 06:56:37;;;;;;;26.02;22.17;;;;;;;25.12;56.63;101394.81;4973201;28;20046;-71
2022/08/19 06:59:12;;;;;;;27.55;22.27;;;;;;;25.06;57.39;101396.03;4973112;28;20046;-71
2022/08/19 07:01:45;;;;;;;27.70;22.67;;;;;;;25.18;57.08;101398.25;4973036;28;20135;-72
2022/08/19 07:04:11;;;;;;;29.00;22.92;;;;;;;25.22;56.98;101393.78;4973915;28;20027;-71
2022/08/19 07:06:37;;;;;;;28.65;23.15;;;;;;;25.33;56.92;101392.44;4973389;28;20496;-71
2022/08/19 07:09:04;;;;;;;30.38;22.92;;;;;;;25.42;56.84;101392.53;4973244;28;20035;-69
2022/08/19 07:11:30;;;;;;;27.58;21.60;;;;;;;25.45;56.62;101400.19;4973046;28;20066;-71
2022/08/19 07:13:56;;;;;;;23.70;21.08;;;;;;;25.67;56.41;101397.44;4973378;28;20151;-70
2022/08/19 07:16:21;;;;;;;27.73;21.48;;;;;;;25.63;56.31;101391.72;4981727;28;20545;-69
2022/08/19 07:18:49;;;;;;;27.40;21.35;;;;;;;25.80;56.10;101399.31;4993344;28;20038;-70
2022/08/19 07:21:17;;;;;;;29.65;23.25;;;;;;;25.90;55.58;101410.09;4992778;28;20035;-71
2022/08/19 07:23:44;;;;;;;32.70;23.15;;;;;;;25.82;56.31;101408.09;5004830;28;20052;-70
2022/08/19 07:26:18;;;;;;;33.13;25.88;;;;;;;25.67;57.01;101417.50;5012165;28;20034;-72
2022/08/19 07:28:44;;;;;;;38.67;28.05;;;;;;;25.48;57.65;101407.78;5012561;28;20053;-70
2022/08/19 07:31:12;;;;;;;47.25;30.83;;;;;;;25.59;56.82;101409.19;5012985;28;20092;-72
2022/08/19 07:33:39;;;;;;;41.72;30.13;;;;;;;25.57;57.17;101405.94;5012267;28;20521;-71
2022/08/19 07:36:06;;;;;;;35.90;29.30;;;;;;;25.75;56.84;101388.44;5012042;28;20042;-72
2022/08/19 07:38:34;;;;;;;36.17;27.88;;;;;;;26.17;55.04;101404.44;5011968;28;20037;-72
2022/08/19 07:41:00;;;;;;;35.70;27.35;;;;;;;26.15;55.13;101408.63;5011907;28;20500;-71
2022/08/19 07:43:27;;;;;;;38.65;28.33;;;;;;;26.20;54.62;101411.28;5011720;28;20605;-73
2022/08/19 07:45:56;;;;;;;38.00;27.60;;;;;;;26.22;54.62;101418.09;5010853;28;20080;-72
2022/08/19 07:48:26;;;;;;;38.00;28.17;;;;;;;26.08;55.00;101420.13;5011833;28;20382;-71
2022/08/19 07:50:54;;;;;;;;;;;;;;;26.08;54.78;101418.16;5012354;28;20092;-73
2022/08/19 07:53:19;;;;;;;38.25;28.08;;;;;;;26.08;54.49;101414.63;5015773;28;19999;-72
2022/08/19 07:55:45;;;;;;;36.13;26.85;;;;;;;26.38;53.32;101413.78;5015738;28;20509;-73
2022/08/19 07:58:13;;;;;;;36.65;27.83;;;;;;;26.39;54.01;101411.88;5015762;28;20038;-73
2022/08/19 08:00:39;;;;;;;38.15;27.63;;;;;;;26.32;53.97;101404.03;4997866;28;20042;-72
2022/08/19 08:03:04;;;;;;;36.70;27.08;;;;;;;26.64;53.51;101408.41;5015570;28;20564;-73
2022/08/19 08:11:13;;;;;;;34.03;26.40;;;;;;;26.94;52.98;101416.66;4916436;29;20145;-71
2022/08/19 08:13:40;;;;;;;37.33;27.52;;;;;;;27.07;52.48;101416.81;4916298;29;20500;-73
2022/08/19 08:16:06;;;;;;;32.15;24.08;;;;;;;27.43;51.32;101426.50;4916585;29;20034;-71
2022/08/19 08:18:32;;;;;;;34.50;25.88;;;;;;;27.14;51.41;101425.47;4915976;29;20039;-71
2022/08/19 08:20:58;;;;;;;35.47;25.00;;;;;;;27.73;50.88;101428.28;4916016;29;20421;-71
2022/08/19 08:23:28;;;;;;;37.53;23.45;;;;;;;27.96;49.77;101419.84;4915628;29;20052;-70
2022/08/19 08:25:57;;;;;;;30.75;21.58;;;;;;;27.58;50.18;101431.53;4916013;29;20817;-72
2022/08/19 08:28:24;;;;;;;30.65;23.15;;;;;;;27.89;49.26;101430.56;4915810;29;20413;-71
2022/08/19 08:30:50;;;;;;;26.77;20.88;;;;;;;28.08;48.94;101429.09;4916248;29;20453;-72
2022/08/19 08:33:21;;;;;;;20.85;16.02;;;;;;;27.81;48.71;101437.72;4915733;29;20059;-72
2022/08/19 08:35:46;;;;;;;21.92;13.40;;;;;;;27.76;47.73;101435.94;4915705;29;20044;-71
2022/08/19 08:38:12;;;;;;;17.40;13.02;;;;;;;28.08;47.04;101434.63;4915555;29;20047;-71
2022/08/19 08:40:48;;;;;;;20.15;14.80;;;;;;;27.97;48.55;101438.06;4915403;29;20536;-73
2022/08/19 08:43:33;;;;;;;14.60;11.88;;;;;;;28.15;47.63;101443.22;4936231;28;20051;-71
2022/08/19 08:46:17;;;;;;;15.30;10.65;;;;;;;28.47;45.79;101437.13;4993594;28;20054;-70
2022/08/19 08:48:55;;;;;;;20.10;12.88;;;;;;;28.35;47.07;101442.53;4995087;28;20038;-71
2022/08/19 08:51:32;;;;;;;25.70;17.92;;;;;;;28.29;47.85;101426.44;4995065;28;20394;-71
2022/08/19 08:53:59;;;;;;;25.33;19.75;;;;;;;28.15;48.24;101434.13;4994676;28;20047;-70
2022/08/19 08:56:25;;;;;;;27.08;18.20;;;;;;;28.30;48.27;101437.19;4994832;28;20045;-71
2022/08/19 08:59:01;;;;;;;23.92;17.35;;;;;;;28.29;48.25;101434.75;4994645;28;20054;-72
2022/08/19 09:01:27;;;;;;;24.85;17.15;;;;;;;28.23;47.94;101441.56;4977707;28;20045;-72
2022/08/19 09:03:53;;;;;;;26.20;18.10;;;;;;;28.71;47.14;101439.34;4994381;28;20035;-73
2022/08/19 09:06:26;;;;;;;22.25;16.90;;;;;;;28.31;47.92;101447.09;4994854;28;20041;-70
2022/08/19 09:09:18;;;;;;;25.40;17.23;;;;;;;28.25;48.60;101445.66;4994684;28;20034;-71
2022/08/19 09:12:09;;;;;;;24.63;18.17;;;;;;;27.61;49.84;101443.91;4933694;29;20050;-71
2022/08/19 09:14:41;;;;;;;25.98;16.63;;;;;;;28.13;48.89;101447.44;4934467;29;20059;-74
2022/08/19 09:17:08;;;;;;;23.20;16.25;;;;;;;28.25;49.11;101442.88;4951565;29;20043;-73
2022/08/19 09:19:46;;;;;;;24.42;17.98;;;;;;;27.89;50.01;101439.69;4954440;29;20144;-72
2022/08/19 09:22:11;;;;;;;22.75;18.25;;;;;;;28.43;48.90;101438.13;4953608;28;20039;-74
2022/08/19 09:24:38;;;;;;;28.45;19.60;;;;;;;27.79;50.31;101440.00;4953092;29;20395;-73
2022/08/19 09:27:03;;;;;;;30.10;20.55;;;;;;;27.98;49.88;101439.69;4952930;28;20043;-70
2022/08/19 09:29:30;;;;;;;31.98;21.75;;;;;;;28.37;48.32;101439.44;4952425;29;20071;-72
2022/08/19 09:31:55;;;;;;;29.10;21.63;;;;;;;28.08;49.14;101434.63;4952809;29;20526;-72
2022/08/19 09:34:21;;;;;;;32.00;23.83;;;;;;;28.66;48.50;101441.50;4952729;29;20039;-74
2022/08/19 09:36:46;;;;;;;36.67;23.40;;;;;;;28.28;49.19;101441.41;4953084;28;20047;-72
2022/08/19 09:39:12;;;;;;;32.08;23.02;;;;;;;28.38;49.12;101441.06;4951364;29;20051;-73
2022/08/19 09:41:37;;;;;;;36.88;24.92;;;;;;;28.20;49.63;101433.97;4952348;28;20772;-75
2022/08/19 09:44:03;;;;;;;46.58;30.27;;;;;;;27.83;51.29;101436.25;4952402;29;20095;-73
2022/08/19 09:46:30;;;;;;;40.75;29.25;;;;;;;28.32;50.67;101439.63;4952739;29;20050;-72
2022/08/19 09:48:58;;;;;;;39.20;29.48;;;;;;;29.00;48.52;101438.53;4989468;28;20034;-73
2022/08/19 09:51:28;;;;;;;38.75;28.73;;;;;;;28.95;47.94;101442.34;5013384;28;20092;-73
2022/08/19 09:53:53;;;;;;;40.55;28.20;;;;;;;28.56;48.45;101443.47;5013254;28;20045;-72
2022/08/19 09:56:21;;;;;;;35.22;25.85;;;;;;;28.88;48.27;101439.25;5013277;28;20034;-72
2022/08/19 09:58:47;;;;;;;41.33;30.45;;;;;;;28.17;50.06;101440.94;5013252;28;20044;-72
2022/08/19 10:01:25;;;;;;;43.78;31.30;;;;;;;28.09;50.82;101440.97;5013763;28;20120;-72
2022/08/19 10:03:54;;;;;;;47.30;32.63;;;;;;;28.36;50.25;101448.88;5013404;28;20112;-73
2022/08/19 10:06:25;;;;;;;44.43;30.93;;;;;;;27.83;49.54;101447.28;5013047;28;20037;-70
2022/08/19 10:08:52;;;;;;;42.22;32.35;;;;;;;28.36;48.79;101448.88;5013051;28;20454;-72
2022/08/19 10:11:19;;;;;;;43.60;31.48;;;;;;;28.18;48.87;101445.34;5012756;28;20053;-71
2022/08/19 10:13:44;;;;;;;43.22;30.20;;;;;;;28.49;48.79;101450.63;5029730;28;20048;-72
2022/08/19 10:16:17;;;;;;;43.95;30.20;;;;;;;28.69;47.58;101447.16;5032177;28;20045;-72
2022/08/19 10:18:43;;;;;;;40.88;31.33;;;;;;;28.93;46.63;101447.38;5027079;28;20037;-72
2022/08/19 10:21:24;;;;;;;37.10;29.10;;;;;;;28.68;47.61;101451.06;5031986;28;20053;-72
2022/08/19 10:23:51;;;;;;;42.92;29.92;;;;;;;29.23;46.14;101448.19;5028182;28;20471;-70
2022/08/19 10:26:20;;;;;;;41.80;32.25;;;;;;;29.09;46.06;101445.66;5032147;28;20514;-73
2022/08/19 10:28:46;;;;;;;41.63;29.60;;;;;;;29.02;46.88;101450.91;5026669;28;20032;-72
2022/08/19 10:31:15;;;;;;;39.63;30.85;;;;;;;29.22;46.04;101452.13;5032823;28;20120;-74
2022/08/19 10:33:41;;;;;;;45.75;31.85;;;;;;;28.99;46.71;101446.03;5032206;28;20037;-69
2022/08/19 10:36:09;;;;;;;39.20;29.30;;;;;;;27.85;48.09;101451.69;5023826;28;20068;-70
2022/08/19 10:38:36;;;;;;;42.67;29.63;;;;;;;28.31;47.46;101444.34;5030346;28;20088;-73
2022/08/19 10:41:12;;;;;;;40.17;29.02;;;;;;;28.79;45.67;101452.34;5031386;28;20544;-71
2022/08/19 10:43:39;;;;;;;33.33;26.73;;;;;;;28.54;45.60;101448.50;5031892;28;20064;-72
2022/08/19 10:46:08;;;;;;;29.52;23.77;;;;;;;28.70;45.41;101454.31;5033135;28;20029;-74
2022/08/19 10:48:34;;;;;;;34.05;24.52;;;;;;;29.43;43.34;101445.47;5032507;28;20544;-72
2022/08/19 10:53:44;;;;;;;33.80;20.98;;;;;;;28.74;42.05;101443.41;5014224;28;20048;-75
2022/08/19 11:02:33;;;;;;;15.77;12.55;;;;;;;29.74;38.85;101441.50;5027600;28;20461;-73
2022/08/19 11:04:58;;;;;;;23.00;14.30;;;;;;;29.62;39.55;101439.44;5024160;28;20112;-74
2022/08/19 11:07:26;;;;;;;18.33;13.75;;;;;;;30.02;39.18;101434.22;5004941;28;20413;-71
2022/08/19 11:09:51;;;;;;;16.92;12.40;;;;;;;29.41;40.23;101433.09;5032282;28;20029;-72
2022/08/19 11:12:17;;;;;;;18.05;12.65;;;;;;;30.09;38.76;101437.28;5031353;28;20498;-73
2022/08/19 11:14:42;;;;;;;18.15;15.82;;;;;;;29.77;41.38;101440.81;5031407;28;20041;-71
2022/08/19 11:17:08;;;;;;;17.10;12.05;;;;;;;30.20;39.98;101438.44;5029763;28;20052;-71
2022/08/19 11:19:33;;;;;;;18.75;11.43;;;;;;;30.33;39.18;101439.31;5031301;28;20036;-70
2022/08/19 11:22:01;;;;;;;21.27;14.73;;;;;;;30.18;39.47;101440.75;5031767;28;20033;-71
2022/08/19 11:24:27;;;;;;;19.38;12.60;;;;;;;30.07;39.39;101448.69;5030937;28;20474;-74
2022/08/19 11:26:58;;;;;;;22.20;14.13;;;;;;;30.47;39.56;101442.59;5030941;28;20104;-72
2022/08/19 11:29:25;;;;;;;21.38;14.68;;;;;;;30.11;40.61;101446.06;5031458;28;20048;-72
2022/08/19 11:31:51;;;;;;;24.95;14.23;;;;;;;30.39;41.19;101437.97;5028114;28;20116;-72
2022/08/19 11:34:22;;;;;;;33.38;21.13;;;;;;;29.54;43.95;101440.34;5031087;28;20036;-71
2022/08/19 11:36:50;;;;;;;24.65;18.48;;;;;;;29.44;44.09;101437.97;5027157;28;20061;-72